createdAt,value
2019-03-20T00:01:24.255Z,102427.72
2019-03-20T00:03:57.175Z,102425.23
2019-03-20T00:06:30.044Z,102427.92
2019-03-20T00:09:03.282Z,102431.14
2019-03-20T00:11:37.174Z,102426.15
2019-03-20T00:14:10.261Z,102428.66
2019-03-20T00:16:43.224Z,102428.55
2019-03-20T00:19:16.069Z,102426.06
2019-03-20T00:21:49.033Z,102432.83
2019-03-20T00:24:22.032Z,102439.39
2019-03-20T00:26:55.285Z,102440.25
2019-03-20T00:29:29.167Z,102442.92
2019-03-20T00:32:02.085Z,102438.83
2019-03-20T00:34:35.219Z,102437.77
2019-03-20T00:37:08.186Z,102437.34
2019-03-20T00:39:42.102Z,102435.70
2019-03-20T00:42:14.942Z,102433.50
2019-03-20T00:44:47.777Z,102433.02
2019-03-20T00:47:20.818Z,102437.81
2019-03-20T00:49:53.696Z,102432.71
2019-03-20T00:52:26.509Z,102428.66
2019-03-20T00:54:59.383Z,102432.23
2019-03-20T00:57:32.224Z,102425.48
2019-03-20T01:00:06.088Z,102423.28
2019-03-20T01:02:38.866Z,102426.89
2019-03-20T01:05:13.286Z,102428.34
2019-03-20T01:07:46.163Z,102430.47
2019-03-20T01:10:19.840Z,102431.29
2019-03-20T01:12:52.873Z,102431.84
2019-03-20T01:15:25.679Z,102436.72
2019-03-20T01:17:58.582Z,102437.70
2019-03-20T01:20:31.452Z,102439.46
2019-03-20T01:23:04.272Z,102443.07
2019-03-20T01:25:37.156Z,102446.52
2019-03-20T01:28:09.911Z,102446.52
2019-03-20T01:30:42.800Z,102447.22
2019-03-20T01:33:15.791Z,102442.43
2019-03-20T01:35:48.595Z,102450.09
2019-03-20T01:38:21.403Z,102452.95
2019-03-20T01:40:57.907Z,102444.58
2019-03-20T01:43:28.680Z,102452.63
2019-03-20T01:46:01.493Z,102453.02
2019-03-20T01:48:34.255Z,102450.62
2019-03-20T01:51:23.197Z,102454.98
2019-03-20T01:53:55.920Z,102455.50
2019-03-20T01:56:28.629Z,102461.19
2019-03-20T01:59:01.561Z,102463.92
2019-03-20T02:01:34.400Z,102464.64
2019-03-20T02:04:07.341Z,102459.73
2019-03-20T02:06:40.219Z,102468.62
2019-03-20T02:09:13.148Z,102476.97
2019-03-20T02:11:46.105Z,102485.77
2019-03-20T02:14:19.019Z,102483.69
2019-03-20T02:16:51.817Z,102483.89
2019-03-20T02:19:24.507Z,102492.00
2019-03-20T02:21:57.380Z,102488.48
2019-03-20T02:24:30.163Z,102481.24
2019-03-20T02:27:03.201Z,102481.48
2019-03-20T02:29:36.005Z,102481.48
2019-03-20T02:32:08.932Z,102477.20
2019-03-20T02:34:41.730Z,102483.38
2019-03-20T02:37:14.564Z,102480.79
2019-03-20T02:39:47.451Z,102482.91
2019-03-20T02:42:20.342Z,102480.70
2019-03-20T02:44:53.182Z,102478.38
2019-03-20T02:47:26.035Z,102477.98
2019-03-20T02:49:58.750Z,102482.39
2019-03-20T02:52:31.591Z,102490.38
2019-03-20T02:55:04.720Z,102489.08
2019-03-20T02:57:37.649Z,102489.47
2019-03-20T03:00:13.410Z,102492.57
2019-03-20T03:02:46.196Z,102491.85
2019-03-20T03:05:19.414Z,102498.45
2019-03-20T03:07:52.232Z,102496.91
2019-03-20T03:10:25.027Z,102498.91
2019-03-20T03:12:57.885Z,102498.93
2019-03-20T03:15:30.645Z,102500.34
2019-03-20T03:18:03.465Z,102500.13
2019-03-20T03:20:36.279Z,102506.24
2019-03-20T03:23:09.195Z,102508.75
2019-03-20T03:25:43.226Z,102507.08
2019-03-20T03:28:16.054Z,102509.67
2019-03-20T03:30:48.940Z,102510.58
2019-03-20T03:33:21.813Z,102505.27
2019-03-20T03:35:56.583Z,102504.67
2019-03-20T03:38:29.299Z,102507.27
2019-03-20T03:41:02.100Z,102506.75
2019-03-20T03:43:34.976Z,102504.42
2019-03-20T03:46:07.846Z,102515.73
2019-03-20T03:48:40.639Z,102512.13
2019-03-20T03:51:13.434Z,102508.54
2019-03-20T03:53:46.243Z,102522.47
2019-03-20T03:56:19.080Z,102521.97
2019-03-20T03:58:51.915Z,102526.03
2019-03-20T04:01:24.889Z,102529.52
2019-03-20T04:03:57.655Z,102531.26
2019-03-20T04:06:36.004Z,102533.45
2019-03-20T04:09:06.666Z,102534.36
2019-03-20T04:11:39.672Z,102532.94
2019-03-20T04:14:12.452Z,102540.97
2019-03-20T04:16:45.352Z,102539.41
2019-03-20T04:19:18.192Z,102538.38
2019-03-20T04:21:51.020Z,102537.39
2019-03-20T04:24:23.907Z,102542.31
2019-03-20T04:26:56.755Z,102548.91
2019-03-20T04:29:29.665Z,102550.47
2019-03-20T04:32:02.563Z,102557.63
2019-03-20T04:34:35.439Z,102555.13
2019-03-20T04:37:08.327Z,102555.52
2019-03-20T04:39:42.282Z,102559.02
2019-03-20T04:42:15.022Z,102562.81
2019-03-20T04:44:47.879Z,102569.16
2019-03-20T04:47:20.688Z,102575.94
2019-03-20T04:49:53.568Z,102575.59
2019-03-20T04:52:26.453Z,102579.67
2019-03-20T04:54:59.309Z,102581.88
2019-03-20T04:57:32.270Z,102583.98
2019-03-20T05:00:06.865Z,102588.12
2019-03-20T05:02:40.214Z,102588.67
2019-03-20T05:05:13.096Z,102590.23
2019-03-20T05:07:47.418Z,102601.12
2019-03-20T05:10:20.232Z,102596.44
2019-03-20T05:12:53.154Z,102603.42
2019-03-20T05:15:26.001Z,102597.73
2019-03-20T05:17:58.806Z,102595.11
2019-03-20T05:20:31.631Z,102602.87
2019-03-20T05:23:04.505Z,102601.94
2019-03-20T05:25:37.726Z,102599.70
2019-03-20T05:28:10.604Z,102597.37
2019-03-20T05:30:45.925Z,102596.42
2019-03-20T05:33:19.049Z,102602.77
2019-03-20T05:35:51.828Z,102606.87
2019-03-20T05:38:24.718Z,102605.19
2019-03-20T05:40:57.632Z,102606.31
2019-03-20T05:43:30.612Z,102600.09
2019-03-20T05:46:03.496Z,102611.88
2019-03-20T05:48:36.498Z,102606.39
2019-03-20T05:51:09.386Z,102619.81
2019-03-20T05:53:42.248Z,102618.48
2019-03-20T05:56:15.105Z,102621.45
2019-03-20T05:58:48.031Z,102619.13
2019-03-20T06:01:21.007Z,102626.90
2019-03-20T06:03:53.745Z,102635.70
2019-03-20T06:06:26.648Z,102634.23
2019-03-20T06:08:59.526Z,102636.01
2019-03-20T06:11:32.773Z,102632.45
2019-03-20T06:14:06.961Z,102639.67
2019-03-20T06:16:39.716Z,102640.14
2019-03-20T06:19:12.630Z,102647.47
2019-03-20T06:21:45.690Z,102649.80
2019-03-20T06:24:18.501Z,102652.98
2019-03-20T06:26:51.342Z,102662.91
2019-03-20T06:29:24.080Z,102664.16
2019-03-20T06:31:56.900Z,102665.31
2019-03-20T06:34:29.743Z,102669.53
2019-03-20T06:37:02.553Z,102675.62
2019-03-20T06:39:35.571Z,102670.56
2019-03-20T06:42:08.477Z,102673.23
2019-03-20T06:44:41.281Z,102675.72
2019-03-20T06:47:13.979Z,102678.25
2019-03-20T06:49:46.826Z,102680.52
2019-03-20T06:52:19.530Z,102684.60
2019-03-20T06:54:52.351Z,102679.48
2019-03-20T06:57:25.234Z,102681.10
2019-03-20T07:01:06.554Z,102684.27
2019-03-20T07:04:37.022Z,102683.63
2019-03-20T07:07:43.495Z,102686.58
2019-03-20T07:10:36.100Z,102690.45
2019-03-20T07:13:08.960Z,102690.31
2019-03-20T07:15:43.723Z,102693.52
2019-03-20T07:18:16.496Z,102694.38
2019-03-20T07:20:49.202Z,102700.44
2019-03-20T07:23:22.014Z,102695.80
2019-03-20T07:25:55.009Z,102699.05
2019-03-20T07:28:27.941Z,102698.48
2019-03-20T07:31:00.754Z,102704.53
2019-03-20T07:33:33.534Z,102701.76
2019-03-20T07:36:06.514Z,102698.61
2019-03-20T07:38:39.342Z,102702.95
2019-03-20T07:41:12.247Z,102708.37
2019-03-20T07:43:45.010Z,102706.09
2019-03-20T07:46:17.858Z,102703.83
2019-03-20T07:48:50.731Z,102708.54
2019-03-20T07:51:23.559Z,102701.59
2019-03-20T07:53:56.392Z,102714.83
2019-03-20T07:56:29.179Z,102715.20
2019-03-20T07:59:01.967Z,102724.98
2019-03-20T08:01:34.696Z,102720.35
2019-03-20T08:04:07.397Z,102723.89
2019-03-20T08:06:40.212Z,102729.84
2019-03-20T08:09:13.014Z,102726.64
2019-03-20T08:11:45.941Z,102731.76
2019-03-20T08:14:18.774Z,102732.23
2019-03-20T08:16:51.754Z,102732.56
2019-03-20T08:19:24.651Z,102741.52
2019-03-20T08:21:57.484Z,102739.49
2019-03-20T08:24:30.370Z,102741.80
2019-03-20T08:27:03.290Z,102737.11
2019-03-20T08:29:36.202Z,102743.73
2019-03-20T08:32:09.122Z,102743.30
2019-03-20T08:34:41.934Z,102730.58
2019-03-20T08:37:14.767Z,102741.65
2019-03-20T08:39:47.934Z,102737.90
2019-03-20T08:42:22.018Z,102739.55
2019-03-20T08:44:54.942Z,102742.05
2019-03-20T08:47:27.723Z,102744.66
2019-03-20T08:50:00.590Z,102742.39
2019-03-20T08:52:33.495Z,102738.94
2019-03-20T08:55:07.510Z,102747.16
2019-03-20T08:57:41.882Z,102740.66
2019-03-20T09:00:19.326Z,102744.91
2019-03-20T09:02:52.436Z,102747.34
2019-03-20T09:05:25.296Z,102745.25
2019-03-20T09:07:58.100Z,102739.88
2019-03-20T09:10:31.957Z,102748.90
2019-03-20T09:13:04.812Z,102754.48
2019-03-20T09:15:37.640Z,102749.28
2019-03-20T09:18:10.416Z,102752.81
2019-03-20T09:20:43.265Z,102753.68
2019-03-20T09:23:16.073Z,102754.28
2019-03-20T09:25:48.949Z,102756.39
2019-03-20T09:28:21.742Z,102750.50
2019-03-20T09:30:54.589Z,102754.41
2019-03-20T09:33:27.582Z,102752.23
2019-03-20T09:36:00.374Z,102751.52
2019-03-20T09:38:43.050Z,102749.36
2019-03-20T09:41:07.730Z,102746.23
2019-03-20T09:43:40.527Z,102750.54
2019-03-20T09:46:13.305Z,102749.52
2019-03-20T09:48:46.086Z,102745.90
2019-03-20T09:51:18.787Z,102746.16
2019-03-20T09:53:51.532Z,102739.05
2019-03-20T09:56:25.297Z,102742.06
2019-03-20T09:58:57.989Z,102745.21
2019-03-20T10:01:30.751Z,102745.06
2019-03-20T10:04:03.649Z,102740.67
2019-03-20T10:06:36.540Z,102740.61
2019-03-20T10:09:10.617Z,102740.61
2019-03-20T10:11:43.446Z,102728.75
2019-03-20T10:14:16.246Z,102732.30
2019-03-20T10:16:48.948Z,102739.62
2019-03-20T10:19:21.785Z,102738.37
2019-03-20T10:21:54.672Z,102732.59
2019-03-20T10:24:27.485Z,102736.14
2019-03-20T10:27:00.291Z,102736.74
2019-03-20T10:29:33.584Z,102736.50
2019-03-20T10:32:06.363Z,102730.52
2019-03-20T10:34:39.818Z,102726.12
2019-03-20T10:37:12.657Z,102731.07
2019-03-20T10:39:45.508Z,102733.47
2019-03-20T10:42:18.629Z,102728.84
2019-03-20T10:44:52.486Z,102734.44
2019-03-20T10:47:25.216Z,102737.44
2019-03-20T10:49:57.992Z,102737.46
2019-03-20T10:52:30.768Z,102726.16
2019-03-20T10:55:03.536Z,102731.45
2019-03-20T10:57:36.473Z,102731.83
2019-03-20T11:00:20.788Z,102739.22
2019-03-20T11:02:53.728Z,102734.23
2019-03-20T11:05:28.077Z,102733.69
2019-03-20T11:08:00.938Z,102729.09
2019-03-20T11:10:33.920Z,102731.08
2019-03-20T11:13:06.702Z,102722.73
2019-03-20T11:15:39.519Z,102726.89
2019-03-20T11:18:12.551Z,102734.82
2019-03-20T11:20:45.466Z,102733.73
2019-03-20T11:23:18.311Z,102723.16
2019-03-20T11:25:51.167Z,102716.49
2019-03-20T11:28:23.995Z,102710.33
2019-03-20T11:30:56.848Z,102710.83
2019-03-20T11:33:29.750Z,102706.70
2019-03-20T11:36:02.573Z,102699.98
2019-03-20T11:38:35.500Z,102700.33
2019-03-20T11:41:08.214Z,102705.28
2019-03-20T11:43:41.103Z,102702.48
2019-03-20T11:46:15.506Z,102707.94
2019-03-20T11:48:48.382Z,102700.66
2019-03-20T11:51:21.165Z,102702.30
2019-03-20T11:53:54.000Z,102702.87
2019-03-20T11:56:26.959Z,102705.88
2019-03-20T11:58:59.760Z,102702.33
2019-03-20T12:01:32.637Z,102696.70
2019-03-20T12:04:05.881Z,102703.06
2019-03-20T12:06:38.733Z,102694.84
2019-03-20T12:09:12.217Z,102697.57
2019-03-20T12:11:46.191Z,102695.55
2019-03-20T12:14:19.112Z,102685.09
2019-03-20T12:16:52.085Z,102691.83
2019-03-20T12:19:24.912Z,102688.05
2019-03-20T12:21:57.858Z,102680.25
2019-03-20T12:24:30.791Z,102679.43
2019-03-20T12:27:14.566Z,102670.35
2019-03-20T12:29:38.289Z,102671.95
2019-03-20T12:32:11.128Z,102665.78
2019-03-20T12:34:44.031Z,102669.88
2019-03-20T12:37:17.806Z,102666.37
2019-03-20T12:39:53.440Z,102668.78
2019-03-20T12:42:25.222Z,102668.59
2019-03-20T12:44:57.972Z,102668.16
2019-03-20T12:47:31.976Z,102663.33
2019-03-20T12:50:05.213Z,102663.13
2019-03-20T12:52:38.242Z,102654.55
2019-03-20T12:55:12.761Z,102658.27
2019-03-20T12:57:45.563Z,102653.89
2019-03-20T13:00:20.634Z,102657.52
2019-03-20T13:02:53.473Z,102664.84
2019-03-20T13:05:27.282Z,102656.51
2019-03-20T13:08:05.719Z,102649.41
2019-03-20T13:10:34.654Z,102648.98
2019-03-20T13:13:08.518Z,102645.62
2019-03-20T13:15:41.406Z,102648.70
2019-03-20T13:18:14.379Z,102635.55
2019-03-20T13:20:47.232Z,102635.08
2019-03-20T13:23:23.475Z,102639.47
2019-03-20T13:25:56.271Z,102633.94
2019-03-20T13:28:29.291Z,102638.84
2019-03-20T13:31:09.062Z,102636.55
2019-03-20T13:33:41.921Z,102630.41
2019-03-20T13:36:14.806Z,102624.89
2019-03-20T13:38:47.656Z,102620.80
2019-03-20T13:41:20.504Z,102617.48
2019-03-20T13:43:53.619Z,102615.49
2019-03-20T13:46:26.415Z,102614.39
2019-03-20T13:48:59.311Z,102611.36
2019-03-20T13:51:32.233Z,102602.12
2019-03-20T13:54:05.046Z,102610.05
2019-03-20T13:56:37.964Z,102600.63
2019-03-20T13:59:11.097Z,102601.02
2019-03-20T14:01:43.990Z,102599.19
2019-03-20T14:04:16.817Z,102605.11
2019-03-20T14:06:49.755Z,102603.63
2019-03-20T14:09:22.628Z,102607.11
2019-03-20T14:11:55.365Z,102605.00
2019-03-20T14:14:29.223Z,102602.67
2019-03-20T14:17:02.138Z,102608.38
2019-03-20T14:19:34.996Z,102605.78
2019-03-20T14:22:07.820Z,102597.05
2019-03-20T14:24:40.653Z,102599.09
2019-03-20T14:27:13.555Z,102593.59
2019-03-20T14:29:46.368Z,102591.63
2019-03-20T14:32:20.242Z,102588.02
2019-03-20T14:34:53.271Z,102578.94
2019-03-20T14:37:35.474Z,102584.70
2019-03-20T14:40:09.593Z,102586.85
2019-03-20T14:42:43.016Z,102579.36
2019-03-20T14:45:16.595Z,102579.48
2019-03-20T14:47:49.624Z,102587.77
2019-03-20T14:50:24.924Z,102588.19
2019-03-20T14:52:57.937Z,102585.66
2019-03-20T14:55:33.800Z,102583.86
2019-03-20T14:58:06.948Z,102593.47
2019-03-20T15:00:40.010Z,102594.77
2019-03-20T15:03:14.998Z,102596.28
2019-03-20T15:05:47.527Z,102596.59
2019-03-20T15:08:20.239Z,102598.81
2019-03-20T15:10:53.302Z,102594.77
2019-03-20T15:13:26.331Z,102588.66
2019-03-20T15:16:10.434Z,102600.48
2019-03-20T15:18:44.998Z,102600.05
2019-03-20T15:21:17.917Z,102599.81
2019-03-20T15:23:50.953Z,102601.05
2019-03-20T15:26:23.873Z,102607.67
2019-03-20T15:28:58.448Z,102611.33
2019-03-20T15:31:31.409Z,102603.11
2019-03-20T15:34:07.390Z,102599.16
2019-03-20T15:36:40.413Z,102600.29
2019-03-20T15:39:16.360Z,102602.93
2019-03-20T15:41:52.444Z,102600.23
2019-03-20T15:44:25.509Z,102600.58
2019-03-20T15:46:58.790Z,102597.52
2019-03-20T15:49:37.179Z,102594.58
2019-03-20T15:52:11.003Z,102587.38
2019-03-20T15:54:43.851Z,102582.10
2019-03-20T15:57:16.782Z,102575.87
2019-03-20T15:59:49.864Z,102561.52
2019-03-20T16:02:22.669Z,102549.77
2019-03-20T16:04:57.031Z,102545.67
2019-03-20T16:07:29.984Z,102549.92
2019-03-20T16:10:03.015Z,102546.33
2019-03-20T16:12:36.144Z,102546.19
2019-03-20T16:15:12.093Z,102552.22
2019-03-20T16:17:44.871Z,102540.61
2019-03-20T16:20:17.937Z,102543.47
2019-03-20T16:22:50.845Z,102541.25
2019-03-20T16:25:23.662Z,102553.03
2019-03-20T16:27:56.524Z,102550.33
2019-03-20T16:30:32.702Z,102554.63
2019-03-20T16:33:05.548Z,102544.36
2019-03-20T16:35:38.396Z,102545.55
2019-03-20T16:38:12.024Z,102549.72
2019-03-20T16:40:45.093Z,102554.22
2019-03-20T16:43:17.897Z,102566.77
2019-03-20T16:45:50.870Z,102563.77
2019-03-20T16:48:23.893Z,102574.86
2019-03-20T16:50:56.870Z,102575.47
2019-03-20T16:53:29.800Z,102574.33
2019-03-20T16:56:02.637Z,102583.32
2019-03-20T16:58:35.521Z,102584.77
2019-03-20T17:01:08.339Z,102594.01
2019-03-20T17:03:41.264Z,102597.66
2019-03-20T17:06:14.302Z,102593.25
2019-03-20T17:08:48.211Z,102598.77
2019-03-20T17:11:30.334Z,102606.87
2019-03-20T17:13:55.862Z,102613.27
2019-03-20T17:16:28.696Z,102614.00
2019-03-20T17:19:01.573Z,102613.21
2019-03-20T17:21:34.420Z,102619.89
2019-03-20T17:24:07.534Z,102625.45
2019-03-20T17:26:40.436Z,102622.09
2019-03-20T17:29:13.770Z,102634.23
2019-03-20T17:31:46.684Z,102632.36
2019-03-20T17:34:19.628Z,102634.33
2019-03-20T17:36:52.747Z,102639.92
2019-03-20T17:39:25.560Z,102642.55
2019-03-20T17:41:58.338Z,102646.98
2019-03-20T17:44:31.217Z,102651.83
2019-03-20T17:47:04.091Z,102642.45
2019-03-20T17:49:36.874Z,102651.41
2019-03-20T17:52:09.785Z,102649.20
2019-03-20T17:54:42.766Z,102643.11
2019-03-20T17:57:15.706Z,102638.34
2019-03-20T17:59:48.482Z,102639.17
2019-03-20T18:02:24.328Z,102636.05
2019-03-20T18:04:55.976Z,102633.73
2019-03-20T18:07:28.743Z,102629.98
2019-03-20T18:10:02.971Z,102622.41
2019-03-20T18:12:36.105Z,102623.66
2019-03-20T18:15:10.868Z,102619.12
2019-03-20T18:17:43.845Z,102616.34
2019-03-20T18:20:16.917Z,102619.83
2019-03-20T18:22:49.776Z,102624.45
2019-03-20T18:25:22.763Z,102633.48
2019-03-20T18:27:55.644Z,102629.58
2019-03-20T18:30:28.685Z,102638.58
2019-03-20T18:33:01.420Z,102633.48
2019-03-20T18:35:34.356Z,102634.59
2019-03-20T18:38:08.336Z,102636.47
2019-03-20T18:40:41.124Z,102637.52
2019-03-20T18:43:14.024Z,102640.02
2019-03-20T18:45:46.933Z,102633.87
2019-03-20T18:48:20.003Z,102635.59
2019-03-20T18:50:52.931Z,102633.79
2019-03-20T18:53:25.807Z,102637.31
2019-03-20T18:55:58.615Z,102639.53
2019-03-20T18:58:31.347Z,102640.02
2019-03-20T19:01:04.218Z,102644.37
2019-03-20T19:03:40.014Z,102637.44
2019-03-20T19:06:21.544Z,102642.02
2019-03-20T19:08:54.451Z,102638.48
2019-03-20T19:11:27.255Z,102635.94
2019-03-20T19:14:02.396Z,102640.36
2019-03-20T19:16:36.466Z,102631.29
2019-03-20T19:19:09.472Z,102635.72
2019-03-20T19:21:42.463Z,102632.68
2019-03-20T19:24:15.450Z,102632.68
2019-03-20T19:26:48.358Z,102629.56
2019-03-20T19:29:21.116Z,102633.58
2019-03-20T19:31:55.788Z,102631.86
2019-03-20T19:34:28.723Z,102632.68
2019-03-20T19:37:01.562Z,102634.48
2019-03-20T19:39:34.511Z,102632.76
2019-03-20T19:42:07.414Z,102628.45
2019-03-20T19:44:40.614Z,102628.03
2019-03-20T19:47:13.749Z,102631.56
2019-03-20T19:49:46.702Z,102624.92
2019-03-20T19:52:19.828Z,102621.80
2019-03-20T19:54:52.883Z,102626.53
2019-03-20T19:57:26.173Z,102619.48
2019-03-20T19:59:59.656Z,102622.59
2019-03-20T20:02:32.693Z,102621.20
2019-03-20T20:05:15.289Z,102623.83
2019-03-20T20:07:41.338Z,102624.88
2019-03-20T20:10:15.331Z,102627.02
2019-03-20T20:12:48.246Z,102634.11
2019-03-20T20:15:22.761Z,102632.46
2019-03-20T20:17:55.597Z,102639.36
2019-03-20T20:20:28.594Z,102630.47
2019-03-20T20:23:04.283Z,102633.36
2019-03-20T20:25:36.786Z,102632.31
2019-03-20T20:28:11.433Z,102637.75
2019-03-20T20:30:44.571Z,102638.42
2019-03-20T20:33:17.433Z,102636.46
2019-03-20T20:35:50.431Z,102639.42
2019-03-20T20:39:48.152Z,102640.95
2019-03-20T20:42:21.268Z,102642.79
2019-03-20T20:44:55.115Z,102642.86
2019-03-20T20:47:28.067Z,102644.25
2019-03-20T20:50:01.120Z,102652.58
2019-03-20T20:52:37.295Z,102656.59
2019-03-20T20:55:11.997Z,102661.92
2019-03-20T20:57:45.304Z,102667.25
2019-03-20T21:00:24.885Z,102668.50
2019-03-20T21:02:58.509Z,102672.09
2019-03-20T21:05:31.584Z,102680.81
2019-03-20T21:08:04.373Z,102684.34
2019-03-20T21:10:37.298Z,102683.85
2019-03-20T21:13:10.274Z,102687.72
2019-03-20T21:15:57.914Z,102681.49
2019-03-20T21:19:33.386Z,102677.55
2019-03-20T21:23:02.373Z,102674.40
2019-03-20T21:25:36.151Z,102684.01
2019-03-20T21:29:03.810Z,102692.31
2019-03-20T21:32:29.014Z,102690.02
2019-03-20T21:36:01.011Z,102682.55
2019-03-20T21:38:34.811Z,102680.78
2019-03-20T21:42:08.513Z,102684.23
2019-03-20T21:45:26.817Z,102685.55
2019-03-20T21:48:00.520Z,102681.69
2019-03-20T21:51:16.812Z,102677.67
2019-03-20T21:54:59.812Z,102674.14
2019-03-20T21:58:01.031Z,102674.48
2019-03-20T22:01:34.870Z,102670.05
2019-03-20T22:04:08.457Z,102683.68
2019-03-20T22:07:11.562Z,102696.41
2019-03-20T22:10:43.226Z,102698.13
2019-03-20T22:13:51.502Z,102697.80
2019-03-20T22:17:29.291Z,102679.73
2019-03-20T22:20:32.701Z,102674.06
2019-03-20T22:24:03.906Z,102668.70
2019-03-20T22:27:21.459Z,102666.48
2019-03-20T22:29:54.964Z,102674.30
2019-03-20T22:33:41.160Z,102670.28
2019-03-20T22:36:30.208Z,102670.69
2019-03-20T22:40:12.376Z,102662.73
2019-03-20T22:42:55.634Z,102651.29
2019-03-20T22:46:42.175Z,102649.08
2019-03-20T22:50:23.210Z,102653.92
2019-03-20T22:54:11.179Z,102655.64
2019-03-20T22:57:16.400Z,102655.30
2019-03-20T22:59:50.093Z,102653.92
2019-03-20T23:02:55.694Z,102656.47
2019-03-20T23:05:29.391Z,102658.27
2019-03-20T23:08:12.559Z,102652.12
2019-03-20T23:10:48.282Z,102647.34
2019-03-20T23:13:21.807Z,102653.55
2019-03-20T23:15:55.413Z,102648.28
2019-03-20T23:18:30.088Z,102652.38
2019-03-20T23:21:03.558Z,102651.13
2019-03-20T23:23:38.799Z,102646.70
2019-03-20T23:26:12.472Z,102650.58
2019-03-20T23:28:46.066Z,102643.52
2019-03-20T23:31:20.648Z,102636.95
2019-03-20T23:33:54.277Z,102642.62
2019-03-20T23:36:28.392Z,102649.67
2019-03-20T23:39:02.120Z,102654.44
2019-03-20T23:41:37.255Z,102650.47
2019-03-20T23:44:10.942Z,102656.63
2019-03-20T23:46:44.630Z,102659.24
2019-03-20T23:49:21.787Z,102665.73
2019-03-20T23:51:55.462Z,102660.41
2019-03-20T23:54:52.883Z,102657.71
2019-03-20T23:57:26.548Z,102660.23
